• Join FlightAware (Why Join?)
  • Login
  • US Flag 
05:17AM EST


 

Airport Tracker/Info


-or-


 

Live Flight TrackerFlight Track Log ✈ DAL6135 ✈ 25-Mar-2014 ✈ KMSY - KCVG

Flight Track Log - Related Links

Times and Time Zones

All times are in EDT time to prevent confusion due to time zone crossing. See the DAL6135 flight status page for this flight to view local times or setup timezone preferences in your user account.

Time Position Orientation Groundspeed Altitude Reporting Facility
EDT Latitude Longitude Course Direction KTS MPH feet Rate Location/Type
05:11PM 30.0031 -90.2456 30° Northeast 143 165 300  Level Houston Center
05:11PM 30.0114 -90.2428 16° North 144 166 800 1,620 Climbing Houston Center
05:12PM 30.0356 -90.2367 12° North 168 193 1,600 1,740 Climbing Houston Center
05:13PM 30.0903 -90.2131 20° North 194 223 3,700 2,160 Climbing Houston Center
05:14PM 30.2315 -90.0852 41° Northeast  Level FlightAware Approximate
05:14PM 30.1419 -90.1669 38° Northeast 221 254 6,100  Level Houston Center
05:15PM 30.3185 -90.0347 26° Northeast  Level FlightAware Approximate
05:15PM 30.1925 -90.1144 42° Northeast 236 272 8,400  Level Houston Center
05:16PM 30.4041 -89.9807 30° Northeast  Level FlightAware Approximate
05:16PM 30.2592 -90.0486 40° Northeast 259 298 10,200  Level Houston Center
05:17PM 30.3336 -90.0047 27° Northeast 291 335 11,300 960 Climbing Houston Center
05:18PM 30.4144 -89.9556 28° Northeast 319 367 12,300 1,020 Climbing Houston Center
05:19PM 30.5003 -89.9031 28° Northeast 338 389 13,500 1,200 Climbing Houston Center
05:20PM 30.5881 -89.8494 28° Northeast 347 399 14,800 1,200 Climbing Houston Center
05:21PM 30.6750 -89.7972 27° Northeast 349 402 16,100 1,200 Climbing Houston Center
05:22PM 30.7628 -89.7439 28° Northeast 351 404 17,400 1,140 Climbing Houston Center
05:23PM 30.8489 -89.6903 28° Northeast 351 404 18,500 1,260 Climbing Houston Center
05:24PM 30.9544 -89.6250 28° Northeast 353 406 20,100 1,380 Climbing Houston Center
05:25PM 31.0431 -89.5711 28° Northeast 356 410 21,400 1,200 Climbing Houston Center
05:26PM 31.1317 -89.5150 28° Northeast 359 413 22,700 1,260 Climbing Houston Center
05:27PM 31.2217 -89.4611 27° Northeast 360 414 24,100 1,380 Climbing Houston Center
05:29PM 31.3211 -89.3978 29° Northeast 360 414 25,600 1,320 Climbing Houston Center
05:30PM 31.4106 -89.3422 28° Northeast 361 415 26,900 1,200 Climbing Houston Center
05:31PM 31.4992 -89.2936 25° Northeast 354 407 28,200 960 Climbing Houston Center
05:32PM 31.5864 -89.2450 25° Northeast 349 402 29,000 420 Climbing Houston Center
05:33PM 31.6792 -89.1931 25° Northeast 364 419 29,100  Climbing Houston Center
05:34PM 31.8011 -89.1269 25° Northeast 398 458 29,000 -60 Descending Houston Center
05:35PM 31.8861 -89.0800 25° Northeast 407 468 29,000  Level Memphis Center
05:36PM 31.9869 -89.0239 25° Northeast 422 486 29,000  Level Memphis Center
05:37PM 32.0953 -88.9628 26° Northeast 429 494 29,000  Level Memphis Center
05:38PM 32.2244 -88.8894 26° Northeast 432 497 29,000  Level Memphis Center
05:39PM 32.3322 -88.8300 25° Northeast 432 497 29,000  Level Memphis Center
05:40PM 32.4400 -88.7858 19° North 422 486 29,000  Level Memphis Center
05:41PM 32.5486 -88.7553 13° North 410 472 29,000  Level Memphis Center
05:42PM 32.6567 -88.7228 14° North 409 471 29,000  Level Memphis Center
05:43PM 32.7869 -88.6856 14° North 407 468 29,000  Level Memphis Center
05:44PM 32.8942 -88.6544 14° North 405 466 29,000  Level Memphis Center
05:45PM 33.0014 -88.6228 14° North 402 463 29,000  Level Memphis Center
05:46PM 33.1075 -88.5914 14° North 401 461 29,000  Level Memphis Center
05:47PM 33.2125 -88.5600 14° North 397 457 29,000  Level Memphis Center
05:48PM 33.3400 -88.5233 14° North 396 456 29,000  Level Memphis Center
05:49PM 33.4436 -88.4908 15° North 394 453 29,000  Level Memphis Center
05:50PM 33.5411 -88.4619 14° North 394 453 29,000  Level Memphis Center
05:51PM 33.6681 -88.4242 14° North 394 453 29,000  Level Memphis Center
05:52PM 33.7750 -88.3928 14° North 393 452 29,000  Level Memphis Center
05:53PM 33.8811 -88.3614 14° North 393 452 29,000  Level Memphis Center
05:54PM 33.9864 -88.3292 14° North 393 452 29,000  Level Memphis Center
05:55PM 34.0931 -88.2981 14° North 393 452 29,000  Level Memphis Center
05:56PM 34.1964 -88.2647 15° North 390 449 29,000  Level Memphis Center
05:57PM 34.3242 -88.2264 14° North 389 448 29,000  Level Memphis Center
05:58PM 34.4300 -88.1944 14° North 389 448 29,000  Level Memphis Center
05:59PM 34.5356 -88.1617 14° North 389 448 29,000  Level Memphis Center
06:00PM 34.6403 -88.1308 14° North 389 448 29,000  Level Memphis Center
06:01PM 34.7453 -88.0983 14° North 389 448 29,000  Level Memphis Center
06:02PM 34.8508 -88.0658 14° North 389 448 29,000  Level Memphis Center
06:03PM 34.9547 -88.0350 14° North 388 447 29,000  Level Memphis Center
06:05PM 35.0786 -87.9958 15° North 385 443 29,000  Level Memphis Center
06:06PM 35.1797 -87.9644 14° North 380 437 29,000  Level Memphis Center
06:07PM 35.2806 -87.9339 14° North 376 433 29,000  Level Memphis Center
06:08PM 35.3814 -87.9031 14° North 376 433 29,000  Level Memphis Center
06:09PM 35.4836 -87.8706 15° North 370 426 29,000  Level Memphis Center
06:10PM 35.5828 -87.8403 14° North 368 423 29,000  Level Memphis Center
06:11PM 35.6811 -87.8100 14° North 364 419 29,000  Level Memphis Center
06:12PM 35.7950 -87.7744 14° North 360 414 29,000  Level Memphis Center
06:13PM 35.8919 -87.7439 14° North 359 413 29,000  Level Memphis Center
06:14PM 35.9881 -87.7131 15° North 356 410 29,000  Level Memphis Center
06:15PM 36.0847 -87.6836 14° North 356 410 29,000  Level Memphis Center
06:16PM 36.1808 -87.6511 15° North 356 410 29,000  Level Memphis Center
06:17PM 36.2764 -87.6219 14° North 354 407 29,000  Level Memphis Center
06:18PM 36.3711 -87.5908 15° North 352 405 29,000  Level Memphis Center
06:19PM 36.4661 -87.5611 14° North 350 403 29,000  Level Memphis Center
06:20PM 36.5756 -87.5247 15° North 348 400 29,000  Level Memphis Center
06:21PM 36.6694 -87.4950 14° North 347 399 29,000  Level Memphis Center
06:22PM 36.7636 -87.4656 14° North 346 398 29,000  Level Memphis Center
06:23PM 36.8581 -87.4342 15° North 346 398 29,000  Level Memphis Center
06:24PM 36.9531 -87.4047 14° North 346 398 29,000  Level Memphis Center
06:25PM 37.0489 -87.3725 15° North 347 399 29,000  Level Memphis Center
06:26PM 37.1436 -87.3408 15° North 348 400 29,000  Level Memphis Center
06:27PM 37.2386 -87.3114 14° North 348 400 29,000  Level Memphis Center
06:28PM 37.3486 -87.2750 15° North 348 400 29,000  Level Memphis Center
06:29PM 37.4311 -87.2000 36° Northeast 366 421 29,000  Level Memphis Center
06:30PM 37.5067 -87.0992 47° Northeast 386 444 29,000 -360 Level Memphis Center
06:31PM 37.5814 -87.0017 46° Northeast 386 444 28,300 -840 Descending Memphis Center
06:32PM 37.6536 -86.9039 47° Northeast 382 440 27,300 -1,020 Descending Memphis Center
06:33PM 37.7236 -86.8128 46° Northeast 364 419 26,300 -1,080 Descending Memphis Center
06:35PM 37.8178 -86.6858 47° Northeast 364 419 24,800 -1,500 Descending Indianapolis Center
06:36PM 37.8931 -86.5853 46° Northeast 382 440 22,900 -1,500 Descending Indianapolis Center
06:37PM 37.9725 -86.4792 46° Northeast 407 468 21,700 -900 Descending Indianapolis Center
06:38PM 38.0494 -86.3739 47° Northeast 409 471 21,100 -360 Descending Indianapolis Center
06:39PM 38.1383 -86.2544 47° Northeast 393 452 21,000 -60 Descending Indianapolis Center
06:40PM 38.2103 -86.1569 47° Northeast 383 441 21,000 -480 Level Indianapolis Center
06:41PM 38.2817 -86.0594 47° Northeast 382 440 20,100 -1,020 Descending Indianapolis Center
06:42PM 38.3531 -85.9625 47° Northeast 378 435 18,900 -1,200 Descending Indianapolis Center
06:43PM 38.4244 -85.8650 47° Northeast 377 434 17,700 -1,080 Descending Indianapolis Center
06:44PM 38.4925 -85.7689 48° Northeast 370 426 16,700 -1,380 Descending Indianapolis Center
06:45PM 38.5594 -85.6783 47° Northeast 359 413 14,900 -2,100 Descending Indianapolis Center
06:46PM 38.6272 -85.5553 55° Northeast 356 410 12,500 -1,920 Descending Indianapolis Center
06:47PM 38.6700 -85.4622 59° Northeast 357 411 11,000 -840 Descending Indianapolis Center
06:48PM 38.6836 -85.3114 83° East 365 420 10,800 -600 Descending Indianapolis Center
06:49PM 38.6814 -85.1989 91° East 327 376 9,800 -1,620 Descending Indianapolis Center
06:50PM 38.6839 -85.0978 88° East 295 339 7,500 -1,980 Descending Indianapolis Center
06:51PM 38.6853 -84.9972 89° East 289 333 5,800 -1,260 Descending Indianapolis Center
06:52PM 38.6847 -84.8972 90° East 281 323 5,000 -300 Descending Indianapolis Center
06:54PM 38.7333 -84.7500 67° East 255 293 5,000 -120 Level Cincinnati TRACON
06:55PM 38.7833 -84.6833 46° Northeast 254 292 4,700 -600 Descending Cincinnati TRACON
06:56PM 38.8500 -84.6667 11° North 232 267 3,800 -780 Descending Cincinnati TRACON
06:57PM 38.9000 -84.6667 360° North 222 255 3,200 -720 Descending Cincinnati TRACON
06:58PM 38.9667 -84.6667 360° North 180 207 2,400 -840 Descending Cincinnati TRACON
06:59PM 39.0000 -84.6667 360° North 122 140 1,600 -840 Descending Cincinnati TRACON